Artesia, California
Current Conditions -  °F | °C
As of 3:53 PM on Friday 31 Oct 2014 (Local Time) from KFUL Reporting Station
Overcast Overcast  
Wind Chill: 71°   Ceiling: 5000
Heat Index: 71°   Visibility: 10mi
Dew Point: 53°   Wind: 6mph
Humidity: 53%   Direction: 220°SW
Pressure: 29.86"   Gusts: NA
Location:  33.86°N, 118.07°W
Report Text: KFUL 312253Z 22005KT 10SM OVC050 22/12 A2986 RMK AO2 SLP110 T02170117
Loading
Personal Weather Stations






























Interactive Weather Map
Tropical Storm Tracking
New forecast layout! Learn more

10-Day Weather Forecast

Advertisements
Track Severe Weather on mobile